MHTG/TGU METAR and TAF weather

Enter ICAO airport designator
Station Type Date Time Source
MHTG METAR 2020/08/12 18:00 UTC NOAA

MHTG 121800Z 02006KT 9999 BKN030TCU 27/22 Q1017 A3003


Station Type Date Time Source
MHTG Decoded METAR 2020/08/12 18:00 UTC NOAA

Tegucigalpa, Honduras (MHTG) 14-03N 087-13W 1007M
Aug 12, 2020 - 02:00 PM EDT / 2020.08.12 1800 UTC
Wind: from the NNE (020 degrees) at 7 MPH (6 KT):0
Visibility: greater than 7 mile(s):0
Sky conditions: mostly cloudy
Weather: Towering cumulus clouds observed
Temperature: 80 F (27 C)
Dew Point: 71 F (22 C)
Relative Humidity: 74%
Pressure (altimeter): 30.03 in. Hg (1016 hPa)
ob: MHTG 121800Z 02006KT 9999 BKN030TCU 27/22 Q1017 A3003
cycle: 18

Station Type Date Time Source
MHTG TAF 2020/08/12 18:54 UTC NOAA

TAF MHTG 121545Z 1218/1318 04007KT 9999 SCT030TCU TX27/1220Z TN16/1312Z
TEMPO 1221/1300 7000 VCSH SCT032TCU BKN080
BECMG 1300/1302 9999 NSW SCT028
BECMG 1309/1311 8000 FEW008 BKN026
BECMG 1313/1315 9999 NSW SCT026

Example: see airport list